Terminal Aerodrome Forecast
Issued by NWS Greer, SC

Home | Current Version | Previous Version | Text Only | Print | Product List | Glossary On
Versions: 1 2 3 4 5 6 7 8 9 10 11 12 13 14 15 16 17 18 19 20 21 22 23
000
FTUS42 KGSP 230600 CCA
TAFGSP
TAF COR
KGSP 230600Z 2306/2406 00000KT P6SM BKN025 BKN060
     FM230700 01003KT 6SM BR BKN025 BKN060
      TEMPO 2309/2312 00000KT 3SM BR BKN015
     FM231300 00000KT P6SM BKN050
     FM231800 24004KT P6SM BKN050 PROB30 2318/2324 4SM TSRA
      BKN020CB=

USA.gov is the U.S. government's official web portal to all federal, state and local government web resources and services.